Time;durP1;ratioP1;P1;durP2;ratioP2;P2;SDS_P1;SDS_P2;PMS_P1;PMS_P2;Temp;Humidity;BMP_temperature;BMP_pressure;BME280_temperature;BME280_humidity;BME280_pressure;Samples;Min_cycle;Max_cycle;Signal;HPM_P1;HPM_P2
2022/03/03 00:02:13;;;;;;;39.53;19.90;;;;;;;2.22;81.52;101018.22;8301167;28;20121;-63
2022/03/03 00:06:14;;;;;;;43.60;19.30;;;;;;;2.25;81.92;101020.75;8326754;22;20055;-91
2022/03/03 00:10:14;;;;;;;37.85;19.45;;;;;;;2.24;81.64;101015.47;8322617;28;20040;-90
2022/03/03 00:14:15;;;;;;;40.67;19.98;;;;;;;2.22;81.86;101015.56;8318893;23;20037;-66
2022/03/03 00:18:15;;;;;;;38.85;18.75;;;;;;;2.10;82.54;101005.50;8313270;28;20404;-66
2022/03/03 00:22:16;;;;;;;40.60;20.20;;;;;;;2.04;83.23;101005.78;8305331;28;20552;-66
2022/03/03 00:26:16;;;;;;;38.05;19.25;;;;;;;1.99;83.88;101005.19;8323730;28;20049;-66
2022/03/03 00:30:17;;;;;;;38.90;20.13;;;;;;;1.98;84.28;100998.09;8316175;28;20406;-66
2022/03/03 00:34:18;;;;;;;38.17;19.45;;;;;;;1.86;84.75;100999.56;8356404;28;20033;-66
2022/03/03 00:38:18;;;;;;;39.42;19.70;;;;;;;1.82;84.91;100991.78;8354776;28;20071;-66
2022/03/03 00:42:18;;;;;;;40.67;19.02;;;;;;;1.83;84.87;100988.22;8354471;28;20472;-66
2022/03/03 00:46:19;;;;;;;44.88;19.55;;;;;;;1.92;84.64;100980.63;8347281;28;20033;-66
2022/03/03 00:50:19;;;;;;;36.75;19.90;;;;;;;1.89;83.95;100985.22;8317217;28;20091;-66
2022/03/03 00:54:20;;;;;;;40.80;19.90;;;;;;;1.92;84.27;100988.59;8307478;28;20041;-66
2022/03/03 00:58:20;;;;;;;36.10;18.25;;;;;;;1.82;84.34;100989.13;8319970;28;20424;-66
2022/03/03 01:02:20;;;;;;;38.17;18.90;;;;;;;1.82;83.71;100991.78;8303178;28;20033;-66
2022/03/03 01:06:21;;;;;;;38.28;18.45;;;;;;;1.82;83.12;100987.34;8316609;28;20025;-66
2022/03/03 01:10:21;;;;;;;35.55;19.02;;;;;;;1.89;82.25;100987.88;8352483;28;20036;-66
2022/03/03 01:14:23;;;;;;;39.70;18.75;;;;;;;1.83;83.00;100981.06;8354698;28;20381;-66
2022/03/03 01:18:24;;;;;;;36.95;18.80;;;;;;;1.79;82.78;100978.63;8352065;28;20051;-66
2022/03/03 01:22:25;;;;;;;38.10;19.48;;;;;;;1.63;83.57;100975.84;8336699;28;20031;-66
2022/03/03 01:26:25;;;;;;;37.78;18.88;;;;;;;1.44;84.91;100979.44;8354466;28;20059;-66
2022/03/03 01:30:25;;;;;;;38.20;20.08;;;;;;;1.34;86.43;100972.84;8352487;28;20036;-66
2022/03/03 01:34:26;;;;;;;34.35;19.27;;;;;;;1.39;87.13;100970.81;8354287;28;20036;-66
2022/03/03 01:38:27;;;;;;;38.45;19.00;;;;;;;1.20;88.35;100965.47;8353113;28;20057;-66
2022/03/03 01:42:27;;;;;;;40.92;20.42;;;;;;;1.19;87.92;100963.72;8352758;28;20029;-66
2022/03/03 01:46:27;;;;;;;38.95;18.85;;;;;;;1.19;87.79;100957.56;8350774;28;20094;-66
2022/03/03 01:50:28;;;;;;;44.20;21.00;;;;;;;1.28;86.75;100951.81;8326780;28;20630;-66
2022/03/03 01:54:28;;;;;;;35.75;18.15;;;;;;;1.38;86.10;100948.66;8321074;28;20370;-66
2022/03/03 01:58:29;;;;;;;35.50;18.17;;;;;;;1.45;85.04;100954.53;8319857;28;20046;-66
2022/03/03 02:02:29;;;;;;;37.85;18.88;;;;;;;1.48;84.25;100938.41;8328206;28;20344;-66
2022/03/03 02:06:30;;;;;;;34.95;18.52;;;;;;;1.50;84.12;100936.53;8353047;28;20040;-66
2022/03/03 02:10:32;;;;;;;34.88;18.35;;;;;;;1.39;84.05;100942.38;8351521;28;20037;-66
2022/03/03 02:14:43;;;;;;;39.70;18.13;;;;;;;1.20;85.26;100940.66;8354361;28;20049;-66
2022/03/03 02:18:43;;;;;;;41.80;19.52;;;;;;;1.11;85.78;100947.28;8336699;28;20509;-66
2022/03/03 02:22:44;;;;;;;43.10;19.48;;;;;;;0.86;87.31;100932.50;8335566;28;20071;-66
2022/03/03 02:26:46;;;;;;;49.65;20.42;;;;;;;0.84;88.51;100923.69;8352136;28;20062;-65
2022/03/03 02:30:46;;;;;;;42.03;21.25;;;;;;;0.85;87.70;100917.47;8349659;28;20305;-65
2022/03/03 02:34:47;;;;;;;33.42;18.40;;;;;;;0.92;87.25;100921.56;8349917;28;20554;-65
2022/03/03 02:38:51;;;;;;;37.63;18.40;;;;;;;1.03;86.56;100913.94;8352170;28;20524;-66
2022/03/03 02:42:54;;;;;;;36.55;18.65;;;;;;;0.98;86.18;100913.31;8353490;28;20033;-66
2022/03/03 02:46:54;;;;;;;39.13;18.33;;;;;;;0.93;86.14;100907.31;8351066;28;20086;-65
2022/03/03 02:50:55;;;;;;;35.95;19.17;;;;;;;0.72;87.57;100908.28;8352658;28;20044;-65
2022/03/03 02:54:55;;;;;;;39.08;19.33;;;;;;;0.59;88.54;100904.47;8350793;28;20171;-65
2022/03/03 02:58:56;;;;;;;38.05;18.52;;;;;;;0.46;90.90;100905.94;8351739;28;20072;-65
2022/03/03 03:02:56;;;;;;;38.28;19.52;;;;;;;0.37;91.93;100906.34;8352355;28;20080;-65
2022/03/03 03:06:57;;;;;;;41.40;20.48;;;;;;;0.48;90.89;100906.72;8357579;28;20401;-65
2022/03/03 03:10:57;;;;;;;41.13;18.40;;;;;;;0.60;89.49;100899.09;8355705;28;20033;-66
2022/03/03 03:14:58;;;;;;;37.20;18.60;;;;;;;0.75;88.48;100897.50;8358163;28;20045;-66
2022/03/03 03:18:58;;;;;;;41.22;18.75;;;;;;;0.78;87.47;100892.06;8343707;28;20099;-66
2022/03/03 03:22:59;;;;;;;42.50;19.65;;;;;;;0.69;87.02;100884.50;8327558;28;20045;-66
2022/03/03 03:26:59;;;;;;;40.05;19.02;;;;;;;0.77;86.85;100893.00;8323361;28;20041;-66
2022/03/03 03:31:00;;;;;;;39.90;20.10;;;;;;;0.63;87.52;100890.97;8322465;28;20428;-66
2022/03/03 03:35:00;;;;;;;45.25;21.17;;;;;;;0.54;87.99;100891.38;8323362;28;20037;-66
2022/03/03 03:39:01;;;;;;;45.45;21.52;;;;;;;0.53;89.13;100891.44;8337191;28;20052;-66
2022/03/03 03:43:02;;;;;;;44.45;19.77;;;;;;;0.49;89.61;100889.88;8325972;28;20132;-66
2022/03/03 03:47:02;;;;;;;40.08;19.33;;;;;;;0.53;89.12;100886.13;8339188;28;20045;-66
2022/03/03 03:51:03;;;;;;;42.88;19.35;;;;;;;0.55;89.06;100874.47;8344770;28;20420;-66
2022/03/03 03:55:05;;;;;;;43.03;19.90;;;;;;;0.56;89.24;100880.66;8353903;28;20044;-66
2022/03/03 03:59:05;;;;;;;37.50;19.20;;;;;;;0.58;89.51;100873.50;8338192;28;20300;-66
2022/03/03 04:03:06;;;;;;;43.90;20.38;;;;;;;0.61;89.04;100879.50;8357939;28;20124;-66
2022/03/03 04:07:06;;;;;;;41.72;18.48;;;;;;;0.63;89.09;100882.09;8356933;28;20492;-66
2022/03/03 04:11:07;;;;;;;42.42;19.75;;;;;;;0.68;88.82;100880.13;8356561;28;20056;-66
2022/03/03 04:15:09;;;;;;;38.13;18.83;;;;;;;0.67;88.66;100878.41;8337184;28;20045;-66
2022/03/03 04:19:10;;;;;;;37.45;17.95;;;;;;;0.73;88.02;100867.47;8358550;28;20504;-66
2022/03/03 04:23:10;;;;;;;38.75;17.83;;;;;;;0.75;87.10;100866.47;8326644;28;20446;-66
2022/03/03 04:27:11;;;;;;;37.88;19.50;;;;;;;0.74;86.45;100863.88;8344188;28;20025;-66
2022/03/03 04:31:11;;;;;;;39.33;17.38;;;;;;;0.77;86.17;100859.28;8323356;28;20036;-66
2022/03/03 04:35:12;;;;;;;37.33;16.48;;;;;;;0.77;85.04;100847.78;8323928;28;20034;-66
2022/03/03 04:39:13;;;;;;;34.45;17.58;;;;;;;0.82;84.43;100851.09;8339639;28;20045;-66
2022/03/03 04:43:13;;;;;;;33.85;17.17;;;;;;;0.80;84.57;100844.97;8355554;28;20039;-66
2022/03/03 04:47:15;;;;;;;35.33;17.00;;;;;;;0.77;84.60;100847.78;8354262;28;20033;-66
2022/03/03 04:51:16;;;;;;;35.25;17.83;;;;;;;0.71;84.12;100853.38;8356272;28;20040;-66
2022/03/03 04:55:16;;;;;;;37.05;18.65;;;;;;;0.63;84.91;100847.53;8356125;28;20040;-66
2022/03/03 04:59:16;;;;;;;36.90;18.90;;;;;;;0.61;85.57;100846.75;8351337;28;20124;-66
2022/03/03 05:03:17;;;;;;;38.60;18.50;;;;;;;0.65;85.03;100843.00;8342801;28;20033;-66
2022/03/03 05:07:19;;;;;;;38.15;17.50;;;;;;;0.73;83.94;100840.88;8355136;28;20037;-65
2022/03/03 05:11:19;;;;;;;37.08;17.33;;;;;;;0.75;83.36;100844.31;8341252;28;20041;-66
2022/03/03 05:15:20;;;;;;;36.78;17.90;;;;;;;0.83;83.47;100842.16;8333479;28;20071;-66
2022/03/03 05:19:20;;;;;;;36.60;18.38;;;;;;;0.86;82.93;100831.38;8352281;28;20286;-66
2022/03/03 05:23:22;;;;;;;34.75;17.45;;;;;;;0.94;82.45;100829.19;8354027;28;20033;-66
2022/03/03 05:27:22;;;;;;;40.58;17.30;;;;;;;0.98;81.52;100841.44;8353159;28;20416;-65
2022/03/03 05:31:23;;;;;;;32.60;16.35;;;;;;;0.92;80.96;100836.41;8354721;28;20033;-65
2022/03/03 05:35:24;;;;;;;33.58;17.63;;;;;;;0.81;81.59;100833.38;8354408;28;20040;-65
2022/03/03 05:39:26;;;;;;;36.38;16.25;;;;;;;0.75;82.00;100839.84;8354521;28;20258;-66
2022/03/03 05:43:27;;;;;;;38.70;18.27;;;;;;;0.72;81.89;100823.16;8344250;28;20156;-66
2022/03/03 05:47:28;;;;;;;38.22;17.48;;;;;;;0.62;83.09;100821.88;8343849;28;20033;-66
2022/03/03 05:51:31;;;;;;;40.38;16.83;;;;;;;0.51;83.15;100818.84;8315954;28;20044;-66
2022/03/03 05:55:32;;;;;;;40.85;18.00;;;;;;;0.43;83.97;100813.03;8317404;28;20041;-66
2022/03/03 05:59:35;;;;;;;40.00;19.48;;;;;;;0.37;84.50;100831.91;8314539;28;20049;-66
2022/03/03 06:03:36;;;;;;;33.85;17.38;;;;;;;0.41;84.24;100822.84;8312327;28;20069;-66
2022/03/03 06:07:42;;;;;;;39.03;17.88;;;;;;;0.49;83.21;100816.25;8312312;28;20041;-66
2022/03/03 06:11:49;;;;;;;41.55;18.48;;;;;;;0.37;83.86;100810.63;8310753;28;20041;-66
2022/03/03 06:15:51;;;;;;;34.53;18.23;;;;;;;0.37;84.46;100811.50;8303707;28;20041;-66
2022/03/03 06:19:53;;;;;;;33.00;16.45;;;;;;;0.42;84.45;100808.66;8308152;28;20525;-66
2022/03/03 06:23:53;;;;;;;37.60;18.33;;;;;;;0.37;84.22;100821.28;8301461;28;20038;-66
2022/03/03 06:27:54;;;;;;;36.30;17.40;;;;;;;0.28;85.23;100819.03;8302395;28;20122;-66
2022/03/03 06:31:54;;;;;;;36.08;18.35;;;;;;;0.16;87.01;100819.56;8312257;28;20053;-66
2022/03/03 06:35:55;;;;;;;37.00;18.25;;;;;;;0.28;87.20;100827.88;8311938;28;20053;-66
2022/03/03 06:39:55;;;;;;;43.00;19.80;;;;;;;1.44;86.91;100819.63;8344807;28;20077;-65
2022/03/03 06:43:56;;;;;;;33.38;17.05;;;;;;;0.66;83.79;100823.44;8354937;28;20033;-66
2022/03/03 06:47:59;;;;;;;40.85;18.75;;;;;;;0.70;84.50;100825.06;8332706;28;20493;-66
2022/03/03 06:52:02;;;;;;;40.92;19.08;;;;;;;0.74;83.49;100821.31;8326151;28;20041;-66
2022/03/03 06:56:07;;;;;;;48.50;20.33;;;;;;;0.77;83.63;100826.47;8323803;28;20042;-66
2022/03/03 07:00:09;;;;;;;43.15;20.40;;;;;;;0.96;83.08;100832.66;8327791;28;20041;-66
2022/03/03 07:04:11;;;;;;;42.05;18.40;;;;;;;1.21;81.01;100834.06;8327374;28;20037;-66
2022/03/03 07:08:12;;;;;;;37.85;19.27;;;;;;;1.55;79.89;100828.81;8355076;28;20072;-66
2022/03/03 07:12:14;;;;;;;43.47;18.30;;;;;;;1.89;78.75;100827.94;8360060;28;20269;-66
2022/03/03 07:21:17;;;;;;;40.42;17.67;;;;;;;2.20;77.16;100827.25;8355365;27;20396;-67
2022/03/03 07:25:20;;;;;;;33.30;17.15;;;;;;;2.15;76.23;100823.94;8350996;28;20034;-66
2022/03/03 07:29:26;;;;;;;37.78;17.70;;;;;;;2.10;77.15;100826.00;8332835;28;20027;-66
2022/03/03 07:33:53;;;;;;;38.25;17.30;;;;;;;2.21;76.99;100821.81;8351448;28;20045;-66
2022/03/03 07:37:59;;;;;;;41.40;18.63;;;;;;;2.26;76.34;100832.25;8348358;28;20033;-66
2022/03/03 07:41:59;;;;;;;37.15;17.08;;;;;;;2.39;75.67;100818.19;8350436;28;20104;-66
2022/03/03 07:46:00;;;;;;;37.80;18.40;;;;;;;2.72;76.36;100826.16;8335238;28;20124;-66
2022/03/03 07:50:00;;;;;;;31.35;17.00;;;;;;;2.99;75.75;100830.84;8347846;28;20050;-66
2022/03/03 07:54:01;;;;;;;31.08;16.23;;;;;;;3.20;74.64;100840.31;8349286;28;20037;-67
2022/03/03 07:58:03;;;;;;;33.65;16.60;;;;;;;3.48;73.95;100823.59;8330322;28;20041;-66
2022/03/03 08:02:05;;;;;;;30.73;16.38;;;;;;;3.70;72.23;100824.94;8332341;28;20073;-66
2022/03/03 08:06:06;;;;;;;30.50;16.00;;;;;;;3.94;71.78;100833.31;8326633;28;20041;-66
2022/03/03 08:10:08;;;;;;;31.58;17.05;;;;;;;4.24;71.35;100849.34;8348941;28;20048;-66
2022/03/03 08:14:09;;;;;;;32.40;17.08;;;;;;;4.39;71.50;100845.72;8348504;28;20350;-66
2022/03/03 08:18:11;;;;;;;30.92;16.05;;;;;;;4.75;69.78;100848.78;8347985;28;20394;-66
2022/03/03 08:22:13;;;;;;;30.33;15.95;;;;;;;4.98;69.70;100850.88;8348434;28;20037;-66
2022/03/03 08:26:15;;;;;;;27.92;16.05;;;;;;;5.27;69.14;100857.91;8346948;28;20033;-66
2022/03/03 08:30:15;;;;;;;28.50;16.02;;;;;;;5.59;67.42;100843.28;8336256;28;20048;-66
2022/03/03 08:34:43;;;;;;;35.33;17.27;;;;;;;5.78;65.75;100846.47;8305277;28;20581;-66
2022/03/03 08:38:50;;;;;;;30.73;15.18;;;;;;;5.76;65.55;100841.19;8312319;28;20044;-66
2022/03/03 08:42:56;;;;;;;31.23;15.38;;;;;;;5.99;65.67;100847.72;8332346;28;20088;-66
2022/03/03 08:46:57;;;;;;;27.48;14.20;;;;;;;6.13;64.61;100849.47;8305270;28;20112;-66
2022/03/03 08:51:00;;;;;;;34.47;16.02;;;;;;;6.12;64.32;100862.03;8313655;28;20527;-66
2022/03/03 08:55:01;;;;;;;31.85;15.73;;;;;;;6.44;64.78;100849.97;8309157;28;20416;-66
2022/03/03 08:59:01;;;;;;;30.58;15.90;;;;;;;6.52;64.12;100842.22;8314451;28;20157;-66
2022/03/03 09:03:03;;;;;;;33.75;16.67;;;;;;;6.39;62.71;100852.09;8314375;28;20076;-66
2022/03/03 09:07:04;;;;;;;29.83;15.60;;;;;;;6.94;63.32;100849.94;8311931;28;20045;-66
2022/03/03 09:11:04;;;;;;;28.15;15.05;;;;;;;7.01;61.37;100845.81;8313013;28;20041;-66
2022/03/03 09:15:06;;;;;;;33.25;15.88;;;;;;;6.81;61.93;100842.84;8311210;28;20045;-66
2022/03/03 09:19:07;;;;;;;25.67;14.25;;;;;;;7.25;61.31;100849.44;8312511;28;20049;-66
2022/03/03 09:23:08;;;;;;;27.25;15.10;;;;;;;8.41;58.68;100835.22;8312514;28;20049;-66
2022/03/03 09:27:08;;;;;;;24.55;15.05;;;;;;;10.39;55.55;100834.00;8312312;28;20033;-66
2022/03/03 09:31:09;;;;;;;29.92;15.68;;;;;;;11.54;53.73;100844.41;8312112;28;20048;-66
2022/03/03 09:35:10;;;;;;;30.02;15.02;;;;;;;11.96;51.71;100838.78;8312356;28;20326;-66
2022/03/03 09:39:11;;;;;;;25.98;13.63;;;;;;;11.70;50.54;100831.22;8311215;28;20037;-66
2022/03/03 09:43:11;;;;;;;35.15;15.25;;;;;;;12.43;51.22;100833.34;8311977;28;20526;-66
2022/03/03 09:47:14;;;;;;;25.08;15.10;;;;;;;12.46;48.95;100826.78;8311524;28;20041;-66
2022/03/03 09:51:15;;;;;;;29.42;15.70;;;;;;;13.25;47.98;100829.00;8312407;28;20128;-66
2022/03/03 09:55:16;;;;;;;25.92;15.02;;;;;;;12.82;47.55;100829.56;8312195;28;20041;-66
2022/03/03 09:59:17;;;;;;;32.30;15.63;;;;;;;12.98;47.65;100826.22;8312503;28;20467;-66
2022/03/03 10:03:18;;;;;;;30.65;14.48;;;;;;;13.21;47.63;100835.75;8310565;28;20381;-66
2022/03/03 10:07:23;;;;;;;29.58;14.70;;;;;;;12.77;47.64;100825.56;8307880;28;20544;-66
2022/03/03 10:11:23;;;;;;;26.95;14.90;;;;;;;13.54;47.06;100805.22;8310829;28;20044;-66
2022/03/03 10:15:26;;;;;;;27.08;15.20;;;;;;;14.09;46.18;100808.72;8308100;28;20041;-66
2022/03/03 10:19:27;;;;;;;26.48;15.70;;;;;;;14.15;45.94;100811.66;8310102;28;20038;-66
2022/03/03 10:23:32;;;;;;;24.70;15.05;;;;;;;15.02;45.33;100807.91;8312309;28;20053;-66
2022/03/03 10:27:34;;;;;;;28.67;16.35;;;;;;;13.95;46.19;100801.09;8309689;28;20029;-66
2022/03/03 10:31:45;;;;;;;25.88;15.38;;;;;;;15.11;45.34;100796.06;8310920;28;20038;-66
2022/03/03 10:36:08;;;;;;;25.08;14.90;;;;;;;14.42;45.81;100797.13;8309755;28;20037;-66
2022/03/03 10:40:13;;;;;;;27.38;15.80;;;;;;;15.46;45.25;100787.69;8289571;28;20124;-66
2022/03/03 10:44:21;;;;;;;25.88;15.00;;;;;;;15.93;44.44;100789.84;8310612;28;20041;-67
2022/03/03 10:48:24;;;;;;;26.15;15.20;;;;;;;15.28;44.34;100786.91;8296360;28;20468;-66
2022/03/03 10:52:28;;;;;;;27.70;15.20;;;;;;;15.70;44.92;100793.22;8308426;28;20037;-66
2022/03/03 10:56:28;;;;;;;23.70;15.00;;;;;;;16.39;43.87;100778.28;8308068;28;20037;-66
2022/03/03 11:00:31;;;;;;;31.77;15.23;;;;;;;16.49;44.03;100784.44;8311581;28;20554;-67
2022/03/03 11:04:32;;;;;;;22.13;14.70;;;;;;;16.59;42.81;100779.69;8287243;28;20045;-66
2022/03/03 11:08:34;;;;;;;27.25;14.95;;;;;;;15.76;43.14;100780.78;8306058;28;20065;-67
2022/03/03 11:12:35;;;;;;;26.67;15.10;;;;;;;16.83;42.09;100763.22;8303153;28;20041;-66
2022/03/03 11:16:35;;;;;;;25.63;15.52;;;;;;;16.98;42.43;100762.34;8303925;28;20071;-67
2022/03/03 11:20:36;;;;;;;26.20;15.43;;;;;;;17.54;41.11;100766.75;8311081;28;20550;-67
2022/03/03 11:24:39;;;;;;;21.02;14.18;;;;;;;18.11;40.22;100753.53;8311033;28;20102;-67
2022/03/03 11:28:40;;;;;;;24.38;14.10;;;;;;;18.19;40.29;100754.31;8300935;28;20442;-67
2022/03/03 11:32:40;;;;;;;23.80;15.02;;;;;;;18.36;39.36;100753.13;8310576;28;20041;-67
2022/03/03 11:36:44;;;;;;;24.00;13.90;;;;;;;18.80;38.03;100751.38;8312353;28;20041;-67
2022/03/03 11:40:58;;;;;;;27.30;13.82;;;;;;;19.58;38.45;100745.28;8312180;28;20038;-67
2022/03/03 11:45:12;;;;;;;23.45;13.10;;;;;;;19.22;37.54;100737.00;8306079;28;20045;-67
2022/03/03 11:49:22;;;;;;;25.40;14.05;;;;;;;19.52;37.06;100746.03;8305807;28;20116;-66
2022/03/03 11:53:24;;;;;;;22.02;13.27;;;;;;;18.80;38.63;100745.88;8310207;28;20579;-66
2022/03/03 11:57:28;;;;;;;25.95;14.40;;;;;;;19.15;37.71;100739.63;8310712;28;20091;-67
2022/03/03 12:01:52;;;;;;;21.80;14.70;;;;;;;19.23;37.90;100739.53;8309395;28;20492;-67
2022/03/03 12:06:14;;;;;;;22.10;15.00;;;;;;;18.71;36.63;100736.06;8312874;28;20326;-67
2022/03/03 12:10:22;;;;;;;23.27;14.27;;;;;;;18.56;36.75;100732.44;8316316;28;20048;-67
2022/03/03 12:14:32;;;;;;;21.30;13.68;;;;;;;18.75;36.85;100725.53;8306344;28;20553;-67
2022/03/03 12:18:34;;;;;;;23.52;14.75;;;;;;;19.32;35.93;100719.25;8314349;28;20072;-67
2022/03/03 12:22:35;;;;;;;20.50;12.35;;;;;;;19.81;33.77;100710.28;8322707;28;20210;-67
2022/03/03 12:31:29;;;;;;;23.67;15.50;;;;;;;19.43;37.06;100710.50;8407294;27;20386;-65
2022/03/03 12:35:30;;;;;;;29.17;17.50;;;;;;;19.33;36.26;100699.00;8403694;28;20070;-65
2022/03/03 12:39:31;;;;;;;24.50;16.10;;;;;;;19.33;35.88;100690.75;8345067;28;20044;-66
2022/03/03 12:43:39;;;;;;;21.60;13.37;;;;;;;18.19;36.45;100691.38;8352861;28;20092;-66
2022/03/03 12:47:42;;;;;;;21.05;12.93;;;;;;;18.77;34.96;100680.50;8320745;28;20327;-66
2022/03/03 12:51:45;;;;;;;23.17;14.43;;;;;;;18.99;35.12;100663.09;8341025;28;20045;-66
2022/03/03 12:55:48;;;;;;;26.45;15.38;;;;;;;17.90;36.70;100677.59;8334490;28;20045;-66
2022/03/03 12:59:49;;;;;;;25.07;13.93;;;;;;;18.51;35.71;100674.63;8336640;28;20037;-66
2022/03/03 13:03:49;;;;;;;22.05;13.43;;;;;;;17.69;36.58;100676.59;8337838;28;20037;-66
2022/03/03 13:07:50;;;;;;;24.30;12.52;;;;;;;16.75;36.95;100681.34;8341208;28;20040;-66
2022/03/03 13:11:57;;;;;;;14.13;8.80;;;;;;;14.88;36.26;100675.09;8385074;28;20048;-66
2022/03/03 13:16:11;;;;;;;18.05;10.90;;;;;;;14.30;36.50;100674.13;8371045;28;20384;-66
2022/03/03 13:20:11;;;;;;;17.20;11.05;;;;;;;13.80;38.15;100670.34;8342657;28;20037;-66
2022/03/03 13:24:12;;;;;;;23.98;12.63;;;;;;;13.79;39.94;100669.47;8353968;28;20039;-66
2022/03/03 13:28:23;;;;;;;21.63;13.05;;;;;;;13.62;40.66;100666.78;8355593;28;20045;-66
2022/03/03 13:32:23;;;;;;;25.08;14.40;;;;;;;13.39;42.49;100671.00;8332627;28;20047;-66
2022/03/03 13:36:29;;;;;;;24.25;13.85;;;;;;;13.14;42.87;100669.00;8350543;28;20077;-66
2022/03/03 13:40:30;;;;;;;25.55;14.43;;;;;;;13.00;41.74;100672.25;8333667;28;20041;-66
2022/03/03 13:44:32;;;;;;;25.85;12.82;;;;;;;13.09;42.62;100668.63;8329037;28;20187;-66
2022/03/03 13:48:33;;;;;;;21.15;12.70;;;;;;;13.25;43.26;100657.94;8332851;28;20906;-66
2022/03/03 13:52:36;;;;;;;15.07;10.32;;;;;;;13.15;41.30;100663.44;8307941;28;20088;-66
2022/03/03 13:56:36;;;;;;;22.83;12.65;;;;;;;13.00;40.57;100669.53;8333575;28;20056;-66
2022/03/03 14:00:42;;;;;;;27.10;11.50;;;;;;;13.15;41.18;100673.44;8326149;28;20037;-65
2022/03/03 14:04:57;;;;;;;25.48;13.63;;;;;;;13.13;42.51;100661.88;8362851;28;20057;-65
2022/03/03 14:08:57;;;;;;;19.75;12.25;;;;;;;13.08;42.11;100666.91;8320664;28;20300;-65
2022/03/03 14:13:06;;;;;;;22.17;12.48;;;;;;;13.19;42.67;100658.56;8332200;28;20099;-65
2022/03/03 14:17:06;;;;;;;20.42;12.30;;;;;;;13.19;42.58;100647.69;8304284;28;20457;-66
2022/03/03 14:21:07;;;;;;;19.40;12.38;;;;;;;13.15;41.66;100651.75;8327299;28;20033;-65
2022/03/03 14:25:08;;;;;;;19.02;11.27;;;;;;;13.23;40.87;100659.94;8342505;28;20102;-65
2022/03/03 14:29:08;;;;;;;18.08;11.40;;;;;;;13.28;41.42;100650.34;8363503;28;20045;-65
2022/03/03 14:33:09;;;;;;;25.02;12.60;;;;;;;13.31;41.73;100657.31;8325149;28;20045;-65
2022/03/03 14:37:09;;;;;;;17.60;10.85;;;;;;;13.28;40.43;100657.63;8335701;28;20501;-65
2022/03/03 14:41:10;;;;;;;19.52;11.70;;;;;;;13.34;40.25;100657.00;8309663;28;20042;-65
2022/03/03 14:45:11;;;;;;;18.02;11.73;;;;;;;13.30;40.25;100666.50;8292392;28;20048;-65
2022/03/03 14:49:13;;;;;;;23.27;11.90;;;;;;;13.21;39.62;100651.13;8307816;28;20114;-65
2022/03/03 14:53:14;;;;;;;20.77;11.73;;;;;;;13.16;39.64;100642.56;8322015;28;20718;-64
2022/03/03 14:57:16;;;;;;;19.40;10.85;;;;;;;13.11;41.20;100655.75;8308672;28;20493;-64
2022/03/03 15:01:18;;;;;;;18.60;11.15;;;;;;;13.01;42.01;100660.38;8328033;28;20630;-64
2022/03/03 15:05:18;;;;;;;19.67;11.82;;;;;;;13.21;39.57;100648.41;8314343;28;20125;-63
2022/03/03 15:09:19;;;;;;;19.25;10.98;;;;;;;13.23;39.59;100646.38;8337918;28;20034;-63
2022/03/03 15:13:20;;;;;;;21.45;12.05;;;;;;;12.91;43.61;100649.56;8331879;28;20045;-65
2022/03/03 15:17:21;;;;;;;19.95;10.88;;;;;;;13.05;41.41;100634.66;8324503;28;20043;-65
2022/03/03 15:21:22;;;;;;;18.88;11.32;;;;;;;13.12;42.89;100635.75;8342713;28;20051;-65
2022/03/03 15:25:22;;;;;;;23.33;11.20;;;;;;;13.10;41.10;100637.75;8355592;28;20555;-65
2022/03/03 15:29:23;;;;;;;16.83;10.18;;;;;;;13.17;39.86;100627.97;8359975;28;20041;-65
2022/03/03 15:37:44;;;;;;;35.72;15.35;;;;;;;13.12;41.01;100624.91;8325796;28;20045;-65
2022/03/03 15:41:46;;;;;;;20.92;11.45;;;;;;;13.09;41.38;100636.06;8324010;28;20033;-65
2022/03/03 15:45:47;;;;;;;18.33;10.90;;;;;;;13.01;41.69;100627.81;8323581;28;20036;-65
2022/03/03 15:49:47;;;;;;;21.75;11.60;;;;;;;13.11;39.80;100623.16;8317397;28;20061;-66
2022/03/03 15:53:48;;;;;;;21.10;10.50;;;;;;;13.04;40.57;100625.66;8318909;28;20264;-65
2022/03/03 15:57:48;;;;;;;21.10;11.98;;;;;;;12.88;42.21;100621.88;8309519;28;20114;-65
2022/03/03 16:01:51;;;;;;;20.85;12.15;;;;;;;12.86;43.12;100624.75;8322656;28;20102;-65
2022/03/03 16:05:51;;;;;;;18.27;11.45;;;;;;;12.77;42.27;100624.78;8344125;28;20037;-65
2022/03/03 16:09:52;;;;;;;18.35;11.27;;;;;;;12.72;42.11;100633.38;8353531;28;20110;-65
2022/03/03 16:13:52;;;;;;;22.45;13.00;;;;;;;12.88;43.02;100619.16;8337669;28;20072;-65
2022/03/03 16:17:53;;;;;;;21.20;13.25;;;;;;;12.84;43.04;100632.19;8300059;28;20037;-65
2022/03/03 16:21:54;;;;;;;38.15;13.15;;;;;;;12.83;43.03;100624.19;8341237;28;20102;-65
2022/03/03 16:25:54;;;;;;;24.77;13.98;;;;;;;12.62;44.85;100631.72;8310256;28;20045;-65
2022/03/03 16:29:55;;;;;;;24.35;13.77;;;;;;;12.69;44.86;100624.72;8328292;28;20079;-65
2022/03/03 16:33:55;;;;;;;19.67;12.40;;;;;;;12.70;44.69;100637.28;8294205;28;20041;-65
2022/03/03 16:37:57;;;;;;;18.40;11.90;;;;;;;12.53;45.13;100621.81;8290352;28;20038;-65
2022/03/03 16:41:58;;;;;;;21.23;11.15;;;;;;;12.33;46.10;100631.03;8320185;28;20061;-65
2022/03/03 16:45:58;;;;;;;23.08;12.13;;;;;;;12.28;45.96;100633.31;8317268;28;20037;-65
2022/03/03 16:49:58;;;;;;;24.10;12.73;;;;;;;12.31;45.61;100633.88;8305497;28;20124;-65
2022/03/03 16:54:01;;;;;;;20.42;12.57;;;;;;;12.22;45.97;100642.91;8291627;28;20344;-65
2022/03/03 16:58:02;;;;;;;25.73;14.02;;;;;;;12.19;46.01;100634.22;8295272;28;20158;-65
2022/03/03 17:02:03;;;;;;;23.10;13.45;;;;;;;12.02;45.99;100644.00;8308227;28;20041;-65
2022/03/03 17:06:05;;;;;;;22.85;12.45;;;;;;;11.83;46.05;100644.88;8295109;28;20094;-65
2022/03/03 17:10:08;;;;;;;22.33;12.57;;;;;;;11.69;46.43;100650.72;8313126;28;20509;-65
2022/03/03 17:14:09;;;;;;;23.85;11.88;;;;;;;11.59;46.76;100657.97;8308626;28;20052;-65
2022/03/03 17:18:09;;;;;;;19.23;11.90;;;;;;;11.49;47.30;100657.13;8316350;28;20045;-65
2022/03/03 17:22:10;;;;;;;22.02;12.02;;;;;;;10.99;49.63;100658.25;8307378;28;20060;-65
2022/03/03 17:26:11;;;;;;;29.45;12.93;;;;;;;10.51;53.23;100646.44;8307574;28;20060;-65
2022/03/03 17:30:12;;;;;;;27.23;13.05;;;;;;;9.93;55.66;100660.63;8326570;28;20045;-65
2022/03/03 17:34:14;;;;;;;26.40;11.35;;;;;;;9.16;57.44;100655.66;8328744;28;20041;-65
2022/03/03 17:38:15;;;;;;;22.30;12.30;;;;;;;9.10;57.42;100664.25;8305847;28;20095;-65
2022/03/03 17:42:15;;;;;;;29.10;13.35;;;;;;;8.99;57.34;100650.78;8307136;28;20065;-65
2022/03/03 17:46:16;;;;;;;22.95;12.93;;;;;;;9.02;56.08;100674.81;8311702;28;20612;-64
2022/03/03 17:50:17;;;;;;;28.67;12.55;;;;;;;9.12;55.90;100668.53;8335234;28;20464;-64
2022/03/03 17:54:18;;;;;;;26.23;12.65;;;;;;;9.22;53.17;100677.59;8353783;28;20045;-65
2022/03/03 17:58:18;;;;;;;24.83;12.00;;;;;;;8.53;56.72;100685.19;8328141;28;20099;-65
2022/03/03 18:02:18;;;;;;;22.17;12.70;;;;;;;8.70;55.46;100679.31;8334441;28;20913;-65
2022/03/03 18:06:19;;;;;;;23.88;13.32;;;;;;;8.34;57.40;100675.06;8333164;28;20401;-65
2022/03/03 18:10:20;;;;;;;23.63;11.95;;;;;;;8.43;55.67;100690.47;8339795;28;20034;-65
2022/03/03 18:14:20;;;;;;;26.40;13.93;;;;;;;7.92;57.05;100698.09;8330957;28;20045;-65
2022/03/03 18:18:21;;;;;;;27.52;14.10;;;;;;;7.74;61.04;100694.16;8324416;28;20134;-64
2022/03/03 18:22:22;;;;;;;32.10;15.93;;;;;;;7.89;62.58;100700.19;8303077;28;20041;-64
2022/03/03 18:26:22;;;;;;;28.30;15.65;;;;;;;7.66;63.72;100701.94;8300665;28;20145;-64
2022/03/03 18:30:41;;;;;;;33.13;15.48;;;;;;;7.96;62.13;100709.47;8305305;28;20046;-64
2022/03/03 18:34:43;;;;;;;31.27;15.77;;;;;;;7.53;64.79;100708.38;8346010;28;20045;-64
2022/03/03 18:38:43;;;;;;;23.67;13.63;;;;;;;7.19;64.32;100710.06;8305661;28;20386;-64
2022/03/03 18:42:44;;;;;;;30.08;16.50;;;;;;;6.18;67.13;100719.34;8305266;28;20049;-64